createdAt,value
2023-03-04T00:01:11.702Z,43.53
2023-03-04T00:03:39.674Z,43.97
2023-03-04T00:06:07.939Z,44.25
2023-03-04T00:08:36.196Z,41.97
2023-03-04T00:11:04.284Z,41.08
2023-03-04T00:13:32.278Z,41.20
2023-03-04T00:15:59.946Z,38.75
2023-03-04T00:18:27.793Z,43.70
2023-03-04T00:20:55.521Z,43.47
2023-03-04T00:23:23.391Z,46.53
2023-03-04T00:25:51.117Z,45.45
2023-03-04T00:28:19.786Z,44.72
2023-03-04T00:30:47.449Z,45.33
2023-03-04T00:33:15.748Z,43.05
2023-03-04T00:35:43.443Z,38.80
2023-03-04T00:38:11.230Z,38.95
2023-03-04T00:40:38.760Z,40.50
2023-03-04T00:43:06.634Z,39.83
2023-03-04T00:45:34.155Z,40.85
2023-03-04T00:48:02.209Z,41.40
2023-03-04T00:50:29.676Z,42.40
2023-03-04T00:52:57.964Z,41.85
2023-03-04T00:55:25.490Z,41.53
2023-03-04T00:57:53.767Z,41.90
2023-03-04T01:00:21.772Z,37.13
2023-03-04T01:02:49.653Z,37.42
2023-03-04T01:05:17.554Z,34.22
2023-03-04T01:07:45.435Z,37.88
2023-03-04T01:10:15.665Z,37.60
2023-03-04T01:12:43.963Z,34.10
2023-03-04T01:15:14.079Z,34.60
2023-03-04T01:17:42.201Z,38.20
2023-03-04T01:20:11.039Z,40.55
2023-03-04T01:22:38.887Z,37.95
2023-03-04T01:25:07.802Z,39.28
2023-03-04T01:27:35.631Z,38.95
2023-03-04T01:30:04.424Z,38.45
2023-03-04T01:32:32.370Z,38.70
2023-03-04T01:34:59.896Z,40.22
2023-03-04T01:37:27.643Z,40.55
2023-03-04T01:39:55.206Z,39.20
2023-03-04T01:42:26.369Z,37.95
2023-03-04T01:44:54.306Z,34.45
2023-03-04T01:47:25.743Z,34.90
2023-03-04T01:49:56.528Z,34.72
2023-03-04T01:52:27.359Z,37.40
2023-03-04T01:54:56.288Z,35.58
2023-03-04T01:57:26.632Z,37.13
2023-03-04T02:00:22.676Z,38.13
2023-03-04T02:02:58.033Z,37.30
2023-03-04T02:05:28.053Z,40.17
2023-03-04T02:07:58.460Z,38.30
2023-03-04T02:10:26.447Z,39.60
2023-03-04T02:12:54.573Z,40.15
2023-03-04T02:15:23.002Z,37.72
2023-03-04T02:17:50.981Z,36.60
2023-03-04T02:20:41.663Z,36.92
2023-03-04T02:23:37.502Z,34.55
2023-03-04T02:26:10.237Z,35.60
2023-03-04T02:28:38.307Z,36.33
2023-03-04T02:31:06.503Z,38.67
2023-03-04T02:33:34.606Z,39.13
2023-03-04T02:36:02.121Z,37.50
2023-03-04T02:38:30.286Z,37.53
2023-03-04T02:40:58.444Z,31.45
2023-03-04T02:43:26.925Z,42.67
2023-03-04T02:45:54.508Z,39.00
2023-03-04T02:48:24.407Z,37.42
2023-03-04T02:50:54.178Z,39.55
2023-03-04T02:53:22.493Z,38.75
2023-03-04T02:55:50.477Z,39.00
2023-03-04T02:58:20.373Z,40.38
2023-03-04T03:00:48.505Z,41.03
2023-03-04T03:03:16.685Z,40.80
2023-03-04T03:05:44.620Z,39.22
2023-03-04T03:08:12.609Z,42.17
2023-03-04T03:10:41.595Z,44.83
2023-03-04T03:13:09.731Z,42.22
2023-03-04T03:15:42.243Z,44.42
2023-03-04T03:18:11.042Z,43.70
2023-03-04T03:20:38.816Z,44.35
2023-03-04T03:23:06.778Z,46.00
2023-03-04T03:25:34.452Z,47.20
2023-03-04T03:28:02.401Z,46.22
2023-03-04T03:30:30.094Z,43.80
2023-03-04T03:32:58.152Z,48.30
2023-03-04T03:35:26.002Z,48.67
2023-03-04T03:37:53.907Z,48.80
2023-03-04T03:40:21.395Z,46.65
2023-03-04T03:42:49.259Z,47.13
2023-03-04T03:45:16.953Z,45.42
2023-03-04T03:47:45.235Z,48.15
2023-03-04T03:50:12.866Z,47.05
2023-03-04T03:52:40.688Z,44.33
2023-03-04T03:55:09.354Z,46.55
2023-03-04T03:57:37.201Z,46.20
2023-03-04T04:00:07.272Z,46.90
2023-03-04T04:02:41.138Z,48.08
2023-03-04T04:05:10.660Z,46.40
2023-03-04T04:07:38.844Z,45.72
2023-03-04T04:10:06.891Z,45.00
2023-03-04T04:12:35.034Z,46.92
2023-03-04T04:15:02.584Z,44.65
2023-03-04T04:17:30.425Z,44.60
2023-03-04T04:19:57.974Z,40.80
2023-03-04T04:22:25.767Z,44.90
2023-03-04T04:24:53.506Z,42.50
2023-03-04T04:27:21.429Z,41.20
2023-03-04T04:29:48.851Z,43.10
2023-03-04T04:32:16.889Z,40.35
2023-03-04T04:34:44.351Z,43.35
2023-03-04T04:37:12.265Z,41.67
2023-03-04T04:39:39.822Z,39.42
2023-03-04T04:42:07.593Z,39.40
2023-03-04T04:44:35.093Z,41.08
2023-03-04T04:47:03.096Z,38.70
2023-03-04T04:49:30.640Z,38.13
2023-03-04T04:51:58.761Z,40.17
2023-03-04T04:54:26.348Z,40.92
2023-03-04T04:56:54.319Z,41.03
2023-03-04T04:59:22.156Z,41.15
2023-03-04T05:01:50.057Z,41.63
2023-03-04T05:04:17.580Z,41.13
2023-03-04T05:06:45.441Z,41.47
2023-03-04T05:09:13.374Z,40.72
2023-03-04T05:11:41.176Z,43.35
2023-03-04T05:14:08.774Z,38.22
2023-03-04T05:16:36.600Z,41.83
2023-03-04T05:19:04.516Z,40.75
2023-03-04T05:21:32.566Z,38.95
2023-03-04T05:24:00.006Z,42.70
2023-03-04T05:26:27.937Z,37.15
2023-03-04T05:28:55.444Z,35.17
2023-03-04T05:31:23.567Z,32.80
2023-03-04T05:33:51.079Z,34.97
2023-03-04T05:36:19.004Z,40.28
2023-03-04T05:38:46.589Z,39.63
2023-03-04T05:41:14.524Z,39.38
2023-03-04T05:43:43.053Z,39.90
2023-03-04T05:46:16.382Z,38.50
2023-03-04T05:48:45.059Z,41.45
2023-03-04T05:51:12.898Z,39.53
2023-03-04T05:53:41.812Z,41.05
2023-03-04T05:56:19.889Z,41.35
2023-03-04T05:58:50.590Z,39.30
2023-03-04T06:01:18.605Z,39.58
2023-03-04T06:03:48.704Z,39.35
2023-03-04T06:06:17.091Z,41.08
2023-03-04T06:08:44.553Z,39.45
2023-03-04T06:11:12.368Z,39.10
2023-03-04T06:13:40.297Z,39.85
2023-03-04T06:16:08.556Z,38.30
2023-03-04T06:18:36.251Z,35.58
2023-03-04T06:21:05.072Z,36.00
2023-03-04T06:23:32.603Z,36.78
2023-03-04T06:26:01.947Z,35.53
2023-03-04T06:28:30.315Z,34.20
2023-03-04T06:30:58.663Z,34.70
2023-03-04T06:33:26.598Z,36.83
2023-03-04T06:35:57.171Z,36.10
2023-03-04T06:38:26.429Z,36.70
2023-03-04T06:43:25.324Z,36.50
2023-03-04T06:45:53.114Z,36.92
2023-03-04T06:48:20.586Z,35.47
2023-03-04T06:50:48.359Z,37.15
2023-03-04T06:53:16.146Z,39.88
2023-03-04T06:55:43.956Z,37.55
2023-03-04T06:58:11.420Z,37.25
2023-03-04T07:00:39.461Z,39.20
2023-03-04T07:03:06.935Z,35.78
2023-03-04T07:05:34.777Z,37.47
2023-03-04T07:08:02.311Z,36.13
2023-03-04T07:10:30.501Z,40.00
2023-03-04T07:12:58.210Z,37.78
2023-03-04T07:15:26.004Z,40.92
2023-03-04T07:17:53.530Z,39.08
2023-03-04T07:20:21.761Z,42.63
2023-03-04T07:22:49.279Z,41.03
2023-03-04T07:25:18.155Z,39.30
2023-03-04T07:27:45.679Z,43.25
2023-03-04T07:30:14.159Z,44.00
2023-03-04T07:32:42.252Z,40.55
2023-03-04T07:35:10.355Z,42.95
2023-03-04T07:37:37.828Z,41.95
2023-03-04T07:40:08.256Z,39.55
2023-03-04T07:42:35.951Z,38.08
2023-03-04T07:45:10.627Z,37.15
2023-03-04T07:47:39.897Z,37.47
2023-03-04T07:50:09.162Z,36.40
2023-03-04T07:52:42.154Z,35.60
2023-03-04T07:55:12.368Z,39.65
2023-03-04T07:57:45.244Z,40.65
2023-03-04T08:00:16.558Z,42.10
2023-03-04T08:02:44.418Z,41.15
2023-03-04T08:05:13.509Z,40.58
2023-03-04T08:07:43.362Z,42.45
2023-03-04T08:10:12.236Z,38.00
2023-03-04T08:12:40.331Z,38.47
2023-03-04T08:15:09.525Z,39.85
2023-03-04T08:17:38.466Z,42.17
2023-03-04T08:20:07.797Z,41.75
2023-03-04T08:22:35.557Z,40.03
2023-03-04T08:25:03.830Z,37.75
2023-03-04T08:27:31.530Z,37.40
2023-03-04T08:29:59.575Z,37.58
2023-03-04T08:32:27.522Z,36.78
2023-03-04T08:34:57.041Z,38.13
2023-03-04T08:37:24.690Z,36.58
2023-03-04T08:39:52.603Z,38.35
2023-03-04T08:42:20.260Z,36.40
2023-03-04T08:44:48.180Z,32.38
2023-03-04T08:47:16.156Z,40.10
2023-03-04T08:49:44.265Z,41.60
2023-03-04T08:52:11.831Z,39.10
2023-03-04T08:54:39.703Z,38.05
2023-03-04T08:57:07.952Z,42.85
2023-03-04T08:59:38.158Z,40.50
2023-03-04T09:02:06.256Z,38.67
2023-03-04T09:04:34.332Z,37.22
2023-03-04T09:07:01.854Z,33.13
2023-03-04T09:09:30.178Z,35.60
2023-03-04T09:11:58.428Z,35.17
2023-03-04T09:14:26.365Z,36.55
2023-03-04T09:16:54.050Z,37.40
2023-03-04T09:19:22.177Z,39.70
2023-03-04T09:21:49.785Z,37.15
2023-03-04T09:24:17.756Z,36.15
2023-03-04T09:26:46.108Z,37.78
2023-03-04T09:29:14.128Z,35.03
2023-03-04T09:31:41.726Z,36.33
2023-03-04T09:34:09.822Z,35.90
2023-03-04T09:36:37.482Z,35.67
2023-03-04T09:39:06.660Z,37.58
2023-03-04T09:41:50.619Z,36.17
2023-03-04T09:44:38.082Z,35.60
2023-03-04T09:47:17.979Z,33.28
2023-03-04T09:50:00.825Z,35.28
2023-03-04T09:52:46.765Z,34.55
2023-03-04T09:55:28.359Z,30.88
2023-03-04T09:58:17.061Z,32.13
2023-03-04T10:01:17.438Z,30.23
2023-03-04T10:04:05.809Z,31.50
2023-03-04T10:06:34.572Z,31.55
2023-03-04T10:09:26.360Z,30.83
2023-03-04T10:12:13.840Z,30.92
2023-03-04T10:14:58.585Z,28.45
2023-03-04T10:17:42.850Z,28.05
2023-03-04T10:20:21.311Z,25.90
2023-03-04T10:22:59.134Z,29.45
2023-03-04T10:25:30.689Z,24.17
2023-03-04T10:28:20.638Z,24.63
2023-03-04T10:31:13.861Z,21.88
2023-03-04T10:33:42.642Z,21.45
2023-03-04T10:36:31.390Z,16.08
2023-03-04T10:39:07.185Z,21.75
2023-03-04T10:41:34.991Z,28.23
2023-03-04T10:44:05.728Z,31.50
2023-03-04T10:46:36.033Z,26.50
2023-03-04T10:49:04.961Z,26.00
2023-03-04T10:51:33.642Z,27.20
2023-03-04T10:54:10.952Z,25.60
2023-03-04T10:56:53.446Z,25.60
2023-03-04T10:59:37.000Z,26.55
2023-03-04T11:02:24.439Z,25.65
2023-03-04T11:05:21.706Z,25.23
2023-03-04T11:07:57.290Z,26.98
2023-03-04T11:10:38.291Z,25.13
2023-03-04T11:13:12.079Z,25.92
2023-03-04T11:15:58.184Z,24.75
2023-03-04T11:18:51.262Z,20.25
2023-03-04T11:21:26.951Z,22.33
2023-03-04T11:24:25.759Z,25.33
2023-03-04T11:27:13.271Z,23.35
2023-03-04T11:30:23.938Z,22.67
2023-03-04T11:33:07.267Z,22.30
2023-03-04T11:36:30.384Z,24.60
2023-03-04T11:39:00.596Z,24.15
2023-03-04T11:41:35.938Z,24.55
2023-03-04T11:44:09.019Z,25.65
2023-03-04T11:46:43.689Z,25.17
2023-03-04T11:49:17.361Z,28.52
2023-03-04T11:52:03.845Z,22.27
2023-03-04T11:55:18.524Z,26.33
2023-03-04T11:58:16.291Z,32.33
2023-03-04T12:01:03.670Z,22.05
2023-03-04T12:04:03.747Z,20.75
2023-03-04T12:07:11.316Z,22.02
2023-03-04T12:09:49.531Z,21.90
2023-03-04T12:12:53.919Z,23.52
2023-03-04T12:15:41.681Z,26.55
2023-03-04T12:18:39.554Z,23.92
2023-03-04T12:21:42.635Z,24.63
2023-03-04T12:24:42.988Z,24.17
2023-03-04T12:27:45.666Z,21.33
2023-03-04T12:30:50.131Z,22.77
2023-03-04T12:34:02.445Z,20.30
2023-03-04T12:37:05.402Z,22.90
2023-03-04T12:40:06.811Z,19.90
2023-03-04T12:42:51.664Z,21.58
2023-03-04T12:45:30.677Z,21.98
2023-03-04T12:48:35.180Z,22.80
2023-03-04T12:51:49.625Z,21.75
2023-03-04T12:54:31.363Z,16.85
2023-03-04T12:57:24.106Z,21.40
2023-03-04T13:00:12.880Z,21.33
2023-03-04T13:03:10.792Z,21.85
2023-03-04T13:05:46.040Z,21.10
2023-03-04T13:08:28.284Z,23.05
2023-03-04T13:11:04.100Z,21.83
2023-03-04T13:14:00.635Z,21.20
2023-03-04T13:16:40.896Z,22.30
2023-03-04T13:19:47.234Z,20.40
2023-03-04T13:22:39.295Z,23.48
2023-03-04T13:25:39.611Z,23.20
2023-03-04T13:28:21.292Z,23.48
2023-03-04T13:30:55.887Z,22.30
2023-03-04T13:33:23.753Z,23.27
2023-03-04T13:36:00.187Z,22.40
2023-03-04T13:38:28.221Z,23.48
2023-03-04T13:41:25.017Z,22.85
2023-03-04T13:44:23.336Z,18.92
2023-03-04T13:46:51.037Z,20.13
2023-03-04T13:49:24.831Z,21.30
2023-03-04T13:51:53.021Z,20.15
2023-03-04T13:54:30.107Z,21.77
2023-03-04T13:57:00.489Z,20.80
2023-03-04T13:59:50.833Z,20.15
2023-03-04T14:02:22.812Z,20.95
2023-03-04T14:05:00.319Z,20.00
2023-03-04T14:07:37.205Z,20.00
2023-03-04T14:10:19.508Z,20.85
2023-03-04T14:12:59.165Z,20.48
2023-03-04T14:15:30.227Z,24.80
2023-03-04T14:18:05.864Z,23.02
2023-03-04T14:20:42.817Z,21.25
2023-03-04T14:23:32.328Z,21.35
2023-03-04T14:26:18.368Z,20.30
2023-03-04T14:28:57.785Z,20.75
2023-03-04T14:31:30.364Z,19.10
2023-03-04T14:34:02.420Z,20.83
2023-03-04T14:36:34.631Z,19.13
2023-03-04T14:39:06.910Z,21.05
2023-03-04T14:41:39.736Z,21.17
2023-03-04T14:44:18.093Z,21.75
2023-03-04T14:47:06.509Z,20.97
2023-03-04T14:49:38.420Z,19.33
2023-03-04T14:52:07.350Z,20.17
2023-03-04T14:54:40.890Z,19.25
2023-03-04T14:57:36.008Z,20.15
2023-03-04T15:00:22.774Z,20.95
2023-03-04T15:03:24.621Z,18.67
2023-03-04T15:05:56.018Z,20.40
2023-03-04T15:08:38.397Z,18.55
2023-03-04T15:11:09.020Z,19.63
2023-03-04T15:13:53.693Z,18.42
2023-03-04T15:16:28.160Z,20.45
2023-03-04T15:19:24.891Z,20.70
2023-03-04T15:22:02.562Z,18.38
2023-03-04T15:24:30.433Z,21.30
2023-03-04T15:26:58.223Z,18.98
2023-03-04T15:29:26.476Z,19.48
2023-03-04T15:31:54.111Z,18.77
2023-03-04T15:34:22.114Z,22.08
2023-03-04T15:36:51.164Z,20.90
2023-03-04T15:39:21.786Z,20.25
2023-03-04T15:41:50.717Z,21.42
2023-03-04T15:44:19.195Z,19.58
2023-03-04T15:46:47.239Z,21.58
2023-03-04T15:49:16.088Z,19.70
2023-03-04T15:51:43.831Z,21.25
2023-03-04T15:54:14.150Z,21.80
2023-03-04T15:56:43.087Z,22.67
2023-03-04T15:59:14.320Z,22.05
2023-03-04T16:01:42.174Z,22.98
2023-03-04T16:04:19.359Z,22.50
2023-03-04T16:06:48.970Z,21.63
2023-03-04T16:09:19.849Z,22.58
2023-03-04T16:11:48.222Z,23.50
2023-03-04T16:14:17.228Z,24.73
2023-03-04T16:16:46.673Z,26.30
2023-03-04T16:19:15.162Z,25.83
2023-03-04T16:21:42.876Z,27.13
2023-03-04T16:24:19.582Z,26.40
2023-03-04T16:26:47.864Z,24.88
2023-03-04T16:29:16.649Z,23.95
2023-03-04T16:31:44.595Z,24.67
2023-03-04T16:34:12.960Z,26.60
2023-03-04T16:36:40.844Z,28.27
2023-03-04T16:39:20.889Z,24.83
2023-03-04T16:41:49.028Z,27.15
2023-03-04T16:44:16.963Z,29.92
2023-03-04T16:46:44.749Z,29.20
2023-03-04T16:49:12.671Z,29.08
2023-03-04T16:51:45.600Z,31.33
2023-03-04T16:54:32.029Z,32.80
2023-03-04T16:57:00.853Z,35.47
2023-03-04T16:59:29.542Z,33.90
2023-03-04T17:01:57.840Z,34.85
2023-03-04T17:04:25.963Z,36.40
2023-03-04T17:06:54.254Z,37.08
2023-03-04T17:09:24.335Z,34.65
2023-03-04T17:11:53.230Z,32.75
2023-03-04T17:14:21.210Z,32.55
2023-03-04T17:16:48.939Z,31.58
2023-03-04T17:19:17.256Z,36.65
2023-03-04T17:21:44.943Z,33.22
2023-03-04T17:24:13.208Z,32.92
2023-03-04T17:26:42.669Z,31.85
2023-03-04T17:29:10.650Z,32.00
2023-03-04T17:31:38.267Z,34.28
2023-03-04T17:34:06.295Z,32.65
2023-03-04T17:36:34.886Z,32.08
2023-03-04T17:39:04.934Z,32.58
2023-03-04T17:41:34.368Z,31.65
2023-03-04T17:44:05.881Z,32.75
2023-03-04T17:49:15.868Z,32.58
2023-03-04T17:51:44.954Z,32.38
2023-03-04T17:54:12.812Z,32.65
2023-03-04T17:56:43.466Z,32.20
2023-03-04T17:59:17.184Z,32.45
2023-03-04T18:01:46.214Z,32.67
2023-03-04T18:04:14.969Z,31.85
2023-03-04T18:06:42.897Z,32.58
2023-03-04T18:09:11.047Z,32.97
2023-03-04T18:11:40.322Z,33.25
2023-03-04T18:14:08.750Z,31.42
2023-03-04T18:16:36.447Z,33.22
2023-03-04T18:19:04.934Z,35.00
2023-03-04T18:21:33.451Z,35.10
2023-03-04T18:24:02.267Z,35.22
2023-03-04T18:26:29.833Z,34.42
2023-03-04T18:28:58.006Z,31.45
2023-03-04T18:31:32.233Z,32.65
2023-03-04T18:34:02.342Z,32.95
2023-03-04T18:36:30.659Z,35.17
2023-03-04T18:38:59.690Z,33.50
2023-03-04T18:41:28.004Z,34.85
2023-03-04T18:43:56.799Z,33.40
2023-03-04T18:46:53.867Z,34.20
2023-03-04T18:49:21.857Z,36.85
2023-03-04T18:51:49.359Z,35.92
2023-03-04T18:54:18.423Z,34.33
2023-03-04T18:56:56.761Z,35.77
2023-03-04T18:59:40.927Z,33.25
2023-03-04T19:02:39.581Z,34.03
2023-03-04T19:05:20.256Z,34.40
2023-03-04T19:07:47.889Z,32.83
2023-03-04T19:10:17.672Z,34.20
2023-03-04T19:15:14.340Z,31.27
2023-03-04T19:17:45.303Z,32.42
2023-03-04T19:20:14.476Z,30.80
2023-03-04T19:22:42.278Z,32.88
2023-03-04T19:25:11.028Z,33.00
2023-03-04T19:27:39.170Z,32.63
2023-03-04T19:30:09.978Z,34.55
2023-03-04T19:32:38.268Z,31.67
2023-03-04T19:35:08.325Z,34.58
2023-03-04T19:37:35.938Z,34.60
2023-03-04T19:40:04.975Z,32.17
2023-03-04T19:42:34.214Z,34.33
2023-03-04T19:47:31.288Z,33.97
2023-03-04T19:49:59.070Z,37.10
2023-03-04T19:52:26.690Z,34.97
2023-03-04T19:54:54.702Z,35.78
2023-03-04T19:57:22.212Z,32.53
2023-03-04T19:59:50.721Z,32.88
2023-03-04T20:02:18.338Z,33.22
2023-03-04T20:04:46.432Z,32.75
2023-03-04T20:07:14.098Z,34.10
2023-03-04T20:09:41.896Z,34.40
2023-03-04T20:12:09.526Z,35.78
2023-03-04T20:14:37.446Z,34.13
2023-03-04T20:17:07.047Z,35.05
2023-03-04T20:19:37.080Z,35.65
2023-03-04T20:22:07.078Z,35.67
2023-03-04T20:24:35.085Z,36.90
2023-03-04T20:27:03.050Z,36.20
2023-03-04T20:29:31.028Z,35.90
2023-03-04T20:31:58.886Z,36.10
2023-03-04T20:34:27.267Z,34.10
2023-03-04T20:36:54.861Z,35.42
2023-03-04T20:39:29.077Z,34.80
2023-03-04T20:41:58.727Z,32.92
2023-03-04T20:44:27.134Z,32.92
2023-03-04T20:46:54.609Z,32.70
2023-03-04T20:49:26.737Z,33.33
2023-03-04T20:52:00.290Z,34.17
2023-03-04T20:54:28.164Z,35.45
2023-03-04T20:56:56.249Z,32.80
2023-03-04T20:59:25.568Z,35.15
2023-03-04T21:01:53.294Z,33.08
2023-03-04T21:04:21.415Z,32.60
2023-03-04T21:06:50.751Z,33.85
2023-03-04T21:09:22.515Z,33.35
2023-03-04T21:11:51.590Z,35.03
2023-03-04T21:14:25.882Z,32.50
2023-03-04T21:17:00.520Z,33.78
2023-03-04T21:19:32.481Z,35.20
2023-03-04T21:22:01.020Z,31.25
2023-03-04T21:24:32.861Z,33.50
2023-03-04T21:27:01.714Z,33.75
2023-03-04T21:29:29.585Z,31.08
2023-03-04T21:32:22.756Z,31.90
2023-03-04T21:34:52.954Z,32.88
2023-03-04T21:37:25.646Z,34.65
2023-03-04T21:39:55.115Z,32.70
2023-03-04T21:42:22.900Z,31.88
2023-03-04T21:44:51.796Z,33.90
2023-03-04T21:47:21.211Z,34.47
2023-03-04T21:52:19.916Z,32.25
2023-03-04T21:54:48.670Z,35.05
2023-03-04T21:57:16.774Z,34.40
2023-03-04T21:59:44.917Z,32.15
2023-03-04T22:02:17.704Z,31.92
2023-03-04T22:04:46.266Z,36.20
2023-03-04T22:07:14.496Z,31.45
2023-03-04T22:09:42.358Z,30.77
2023-03-04T22:12:10.267Z,32.53
2023-03-04T22:14:38.060Z,36.08
2023-03-04T22:17:06.052Z,30.80
2023-03-04T22:19:33.988Z,34.08
2023-03-04T22:22:01.812Z,34.22
2023-03-04T22:24:29.683Z,35.15
2023-03-04T22:26:57.776Z,34.28
2023-03-04T22:29:25.847Z,35.65
2023-03-04T22:31:53.416Z,36.47
2023-03-04T22:34:21.353Z,34.97
2023-03-04T22:36:49.464Z,37.10
2023-03-04T22:39:19.669Z,34.05
2023-03-04T22:41:47.986Z,37.43
2023-03-04T22:44:16.331Z,38.00
2023-03-04T22:46:44.020Z,39.92
2023-03-04T22:49:13.989Z,38.65
2023-03-04T22:51:44.021Z,38.58
2023-03-04T22:54:17.405Z,37.58
2023-03-04T22:56:45.586Z,35.08
2023-03-04T22:59:14.132Z,40.47
2023-03-04T23:01:42.141Z,40.10
2023-03-04T23:04:10.101Z,37.65
2023-03-04T23:06:37.878Z,41.17
2023-03-04T23:09:05.918Z,38.50
2023-03-04T23:11:35.676Z,38.20
2023-03-04T23:14:07.570Z,37.67
2023-03-04T23:16:43.311Z,38.13
2023-03-04T23:19:16.671Z,34.63
2023-03-04T23:21:44.929Z,38.15
2023-03-04T23:24:14.041Z,37.83
2023-03-04T23:26:42.867Z,36.83
2023-03-04T23:29:14.722Z,38.30
2023-03-04T23:31:44.410Z,34.45
2023-03-04T23:34:12.952Z,37.13
2023-03-04T23:36:41.072Z,38.78
2023-03-04T23:39:10.184Z,33.22
2023-03-04T23:41:38.670Z,40.63
2023-03-04T23:44:08.275Z,37.95
2023-03-04T23:46:37.798Z,37.60
2023-03-04T23:49:12.590Z,36.75
2023-03-04T23:51:41.031Z,36.92
2023-03-04T23:54:09.048Z,34.97
2023-03-04T23:56:36.911Z,38.35
2023-03-04T23:59:05.276Z,38.83
